• Join FlightAware (Why Join?)
  • Login
  • US Flag 
11:52PM EDT


 

Airport Tracker/Info


-or-


 

Live Flight TrackerFlight Track Log ✈ UAL993 ✈ 30-Apr-2013 ✈ KIAH - KDCA

Flight Track Log - Related Links

Times and Time Zones

All times are in EDT time to prevent confusion due to time zone crossing. See the UAL993 flight status page for this flight to view local times or setup timezone preferences in your user account.

Time Position Orientation Groundspeed Altitude Reporting Facility
EDT Latitude Longitude Course Direction KTS MPH feet Rate Location/Type
11:32AM 29.9764 -95.2983 98° East 176 203 1,000  Level Houston Center
11:32AM 29.9722 -95.2747 102° East 156 180 1,900 1,980 Climbing Houston Center
11:33AM 29.9642 -95.2364 104° East 189 217 3,300 1,920 Climbing Houston Center
11:33AM 29.9619 -95.2086 95° East 229 264 3,900 2,400 Climbing Houston Center
11:34AM 29.9210 -94.9095 97° East  Level FlightAware Approximate
11:34AM 29.9558 -95.1564 98° East 253 291 5,800  Level Houston Center
11:34AM 29.9514 -95.1181 98° East 297 342 7,100 3,180 Climbing Houston Center
11:35AM 29.9084 -94.7668 95° East  Level FlightAware Approximate
11:35AM 29.9456 -95.0650 97° East 284 327 9,100  Level Houston Center
11:35AM 29.9403 -95.0231 98° East 299 344 10,500 1,980 Climbing Houston Center
11:36AM 29.8951 -94.6242 98° East  Level FlightAware Approximate
11:36AM 29.9347 -94.9647 96° East 308 354 11,200  Level Houston Center
11:37AM 29.8784 -94.4821 98° East  Level FlightAware Approximate
11:37AM 29.9214 -94.8403 97° East 382 440 13,200  Level Houston Center
11:38AM 29.9072 -94.7128 97° East 399 459 15,400 2,460 Climbing Houston Center
11:39AM 29.8894 -94.5517 97° East 420 483 18,300 2,520 Climbing Houston Center
11:40AM 29.8731 -94.4156 98° East 428 493 20,700 1,980 Climbing Houston Center
11:41AM 29.8606 -94.2750 96° East 438 504 22,400 1,500 Climbing Houston Center
11:42AM 29.8567 -94.1272 92° East 453 521 23,800 1,320 Climbing Houston Center
11:43AM 29.8611 -93.9772 88° East 473 544 25,200 1,200 Climbing Houston Center
11:44AM 29.8764 -93.8275 83° East 475 547 26,400 1,260 Climbing Houston Center
11:45AM 29.8872 -93.6411 86° East 489 563 27,900 1,560 Climbing Houston Center
11:46AM 29.8939 -93.4850 87° East 492 566 29,700 1,320 Climbing Houston Center
11:47AM 29.9064 -93.3286 85° East 496 571 30,700 1,860 Climbing Houston Center
11:48AM 29.9289 -93.1775 80° East 483 556 33,600 1,980 Climbing Houston Center
11:49AM 29.9550 -93.0347 78° East 463 533 34,800 1,200 Climbing Houston Center
11:50AM 29.9869 -92.8633 78° East 457 526 36,100 900 Climbing Houston Center
11:51AM 30.0133 -92.7197 78° East 459 528 36,700 720 Climbing Houston Center
11:52AM 30.0389 -92.5725 79° East 468 539 37,600 720 Climbing Houston Center
11:53AM 30.0658 -92.4261 78° East 468 539 38,300 600 Climbing Houston Center
11:54AM 30.0928 -92.2797 78° East 467 537 38,900 240 Climbing Houston Center
11:56AM 30.1233 -92.1067 78° East 461 531 38,900  Level Houston Center
11:57AM 30.1483 -91.9589 79° East 470 541 39,000  Climbing Houston Center
11:58AM 30.1761 -91.8067 78° East 482 555 39,000 -60 Level Houston Center
11:59AM 30.2028 -91.6467 79° East 486 559 38,900 -60 Descending Houston Center
12:00PM 30.2292 -91.4936 79° East 486 559 38,900  Level Houston Center
12:01PM 30.2569 -91.3394 78° East 490 564 38,900  Level Houston Center
12:02PM 30.2833 -91.1825 79° East 495 570 38,900  Level Houston Center
12:03PM 30.3158 -90.9925 79° East 502 578 39,000  Climbing Houston Center
12:04PM 30.3419 -90.8322 79° East 506 582 39,000  Level Houston Center
12:05PM 30.3692 -90.6708 79° East 511 588 39,000  Level Houston Center
12:06PM 30.3958 -90.5081 79° East 516 594 39,000  Level Houston Center
12:07PM 30.4217 -90.3447 80° East 516 594 39,000 -60 Level Houston Center
12:08PM 30.4475 -90.1811 80° East 517 595 38,900 -60 Descending Houston Center
12:09PM 30.4800 -89.9842 79° East 514 592 38,900  Level Houston Center
12:10PM 30.5072 -89.8175 79° East 516 594 38,900  Level Houston Center
12:11PM 30.5375 -89.6481 78° East 525 604 38,900  Level Houston Center
12:12PM 30.6069 -89.4956 62° Northeast 534 615 38,900  Level Houston Center
12:13PM 30.6844 -89.3500 58° Northeast 532 612 39,000  Climbing Houston Center
12:14PM 30.7594 -89.2042 59° Northeast 528 608 38,900 -60 Descending Houston Center
12:15PM 30.8344 -89.0603 59° Northeast 523 602 38,900  Level Houston Center
12:16PM 30.9111 -88.9117 59° Northeast 527 606 39,000  Climbing Houston Center
12:17PM 31.0028 -88.7375 58° Northeast 527 606 39,000 -60 Level Houston Center
12:18PM 31.0761 -88.5958 59° Northeast 524 603 38,900  Descending Houston Center
12:19PM 31.1528 -88.4503 58° Northeast 528 608 39,000  Climbing Houston Center
12:20PM 31.2372 -88.2983 57° Northeast 513 590 39,000  Level Atlanta Center
12:21PM 31.3131 -88.1511 59° Northeast 518 596 39,000  Level Atlanta Center
12:22PM 31.3867 -88.0061 59° Northeast 518 596 39,000  Level Atlanta Center
12:23PM 31.4581 -87.8608 60° Northeast 518 596 39,000  Level Atlanta Center
12:24PM 31.5311 -87.7175 59° Northeast 518 596 39,000  Level Atlanta Center
12:25PM 31.6108 -87.5600 59° Northeast 518 596 39,000  Level Atlanta Center
12:26PM 31.6858 -87.4139 59° Northeast 518 596 39,000  Level Atlanta Center
12:27PM 31.7458 -87.2794 62° Northeast 518 596 39,000  Level Atlanta Center
12:28PM 31.8206 -87.1356 59° Northeast 512 589 39,000  Level Atlanta Center
12:29PM 31.8908 -86.9936 60° Northeast 512 589 39,000  Level Atlanta Center
12:30PM 31.9631 -86.8517 59° Northeast 507 583 39,000  Level Atlanta Center
12:31PM 32.0458 -86.6950 58° Northeast 502 578 39,000  Level Atlanta Center
12:32PM 32.1178 -86.5500 60° Northeast 502 578 39,000  Level Atlanta Center
12:33PM 32.1894 -86.4047 60° Northeast 507 583 39,000  Level Atlanta Center
12:34PM 32.2589 -86.2667 59° Northeast 499 574 39,000  Level Atlanta Center
12:35PM 32.3425 -86.1383 52° Northeast 499 574 39,000  Level Atlanta Center
12:36PM 32.4300 -86.0150 50° Northeast 500 575 39,000  Level Atlanta Center
12:37PM 32.5028 -85.9008 53° Northeast 490 564 39,000  Level Atlanta Center
12:38PM 32.6050 -85.7550 50° Northeast 502 578 39,000  Level Atlanta Center
12:39PM 32.6903 -85.6233 52° Northeast 502 578 39,000  Level Atlanta Center
12:40PM 32.7775 -85.4939 51° Northeast 507 583 39,000  Level Atlanta Center
12:41PM 32.8625 -85.3644 52° Northeast 507 583 39,000  Level Atlanta Center
12:42PM 32.9494 -85.2319 52° Northeast 507 583 39,000  Level Atlanta Center
12:43PM 33.0361 -85.1067 50° Northeast 498 573 39,000  Level Atlanta Center
12:44PM 33.1186 -84.9714 54° Northeast 493 567 39,000  Level Atlanta Center
12:45PM 33.2031 -84.8408 52° Northeast 505 581 39,000  Level Atlanta Center
12:46PM 33.2853 -84.7047 54° Northeast 505 581 39,000  Level Atlanta Center
12:47PM 33.3672 -84.5711 54° Northeast 500 575 39,000  Level Atlanta Center
12:48PM 33.4408 -84.4544 53° Northeast 495 570 39,000  Level Atlanta Center
12:49PM 33.5225 -84.3178 54° Northeast 495 570 39,000  Level Atlanta Center
12:50PM 33.6064 -84.1858 53° Northeast 501 577 39,000  Level Atlanta Center
12:51PM 33.6858 -84.0514 55° Northeast 495 570 39,000  Level Atlanta Center
12:52PM 33.7692 -83.9214 52° Northeast 495 570 39,000  Level Atlanta Center
12:53PM 33.8503 -83.7886 54° Northeast 495 570 39,000  Level Atlanta Center
12:54PM 33.9272 -83.6608 54° Northeast 490 564 39,000  Level Atlanta Center
12:55PM 34.0081 -83.5275 54° Northeast 485 558 39,000  Level Atlanta Center
12:56PM 34.0869 -83.3967 54° Northeast 480 552 39,000  Level Atlanta Center
12:57PM 34.1653 -83.2656 54° Northeast 480 552 39,000  Level Atlanta Center
12:58PM 34.2417 -83.1392 54° Northeast 475 547 39,000  Level Atlanta Center
12:59PM 34.3222 -83.0025 54° Northeast 469 540 39,000  Level Atlanta Center
01:00PM 34.3981 -82.8733 55° Northeast 469 540 39,000  Level Atlanta Center
01:01PM 34.4719 -82.7461 55° Northeast 464 534 39,000  Level Atlanta Center
01:02PM 34.5478 -82.6164 55° Northeast 464 534 39,000  Level Atlanta Center
01:03PM 34.6175 -82.5042 53° Northeast 458 527 39,000  Level Atlanta Center
01:04PM 34.6950 -82.3764 54° Northeast 458 527 39,000  Level Atlanta Center
01:05PM 34.7683 -82.2433 56° Northeast 463 533 39,000  Level Atlanta Center
01:06PM 34.8456 -82.1128 54° Northeast 463 533 39,000  Level Atlanta Center
01:07PM 34.9289 -81.9739 54° Northeast 469 540 39,000  Level Atlanta Center
01:08PM 34.9997 -81.8456 56° Northeast 463 533 39,000  Level Atlanta Center
01:09PM 35.0744 -81.7167 55° Northeast 463 533 39,000  Level Atlanta Center
01:10PM 35.1492 -81.5850 55° Northeast 458 527 39,000 -180 Level Atlanta Center
01:11PM 35.2217 -81.4556 56° Northeast 458 527 38,700 -600 Descending Atlanta Center
01:12PM 35.2961 -81.3261 55° Northeast 458 527 37,800 -900 Descending Atlanta Center
01:13PM 35.3642 -81.1992 57° Northeast 453 521 36,900 -960 Descending Atlanta Center
01:14PM 35.4381 -81.0667 56° Northeast 461 531 35,900 -960 Descending Atlanta Center
01:15PM 35.5122 -80.9364 55° Northeast 461 531 35,000 -960 Descending Atlanta Center
01:16PM 35.5881 -80.8033 55° Northeast 461 531 34,000 -960 Descending Atlanta Center
01:17PM 35.6594 -80.6725 56° Northeast 461 531 33,100 -420 Descending Atlanta Center
01:19PM 35.7819 -80.4517 56° Northeast 503 579 33,000 -60 Descending Washington Center
01:20PM 35.8561 -80.3178 56° Northeast 470 541 33,000  Level Washington Center
01:21PM 35.9281 -80.1861 56° Northeast 451 519 33,000  Level Washington Center
01:22PM 35.9994 -80.0619 55° Northeast 451 519 33,000  Level Washington Center
01:23PM 36.0753 -79.9300 55° Northeast 451 519 33,000  Level Washington Center
01:24PM 36.1356 -79.8253 55° Northeast 456 525 33,000  Level Washington Center
01:25PM 36.2156 -79.6778 56° Northeast 467 537 33,000  Level Washington Center
01:26PM 36.2956 -79.5325 56° Northeast 467 537 33,000  Level Washington Center
01:27PM 36.3731 -79.4022 54° Northeast 472 543 33,000  Level Washington Center
01:28PM 36.4372 -79.2789 57° Northeast 472 543 33,000 -900 Level Washington Center
01:29PM 36.5100 -79.1478 55° Northeast 472 543 31,200 -2,640 Descending Washington Center
01:30PM 36.5914 -79.0092 54° Northeast 457 526 27,900 -3,000 Descending Washington Center
01:31PM 36.6639 -78.8831 54° Northeast 457 526 25,300 -1,440 Descending Washington Center
01:32PM 36.7319 -78.7511 57° Northeast 452 520 25,000 -180 Descending Washington Center
01:33PM 36.8000 -78.6267 56° Northeast 446 513 25,000  Level Washington Center
01:34PM 36.8611 -78.5175 55° Northeast 436 502 25,000 -720 Level Washington Center
01:35PM 36.9286 -78.3953 55° Northeast 431 496 23,600 -1,560 Descending Washington Center
01:36PM 36.9942 -78.2703 57° Northeast 426 490 22,000 -840 Descending Washington Center
01:37PM 37.0608 -78.1711 50° Northeast 426 490 22,000  Level Washington Center
01:38PM 37.1553 -78.0519 45° Northeast 406 467 22,000  Level Washington Center
01:39PM 37.2386 -77.9528 43° Northeast 406 467 22,000  Level Washington Center
01:40PM 37.3197 -77.8508 45° Northeast 406 467 22,000  Level Washington Center
01:41PM 37.3989 -77.7511 45° Northeast 406 467 22,000  Level Washington Center
01:42PM 37.4819 -77.6489 44° Northeast 406 467 22,000  Level Washington Center
01:43PM 37.5631 -77.5436 46° Northeast 406 467 22,000 -360 Level Washington Center
01:44PM 37.6439 -77.4408 45° Northeast 406 467 21,300 -900 Descending Washington Center
01:45PM 37.7267 -77.3431 43° Northeast 401 461 20,300 -1,320 Descending Washington Center
01:46PM 37.8133 -77.2608 37° Northeast 401 461 18,700 -1,800 Descending Washington Center
01:47PM 37.9158 -77.2342 12° North 371 427 16,700 -2,040 Descending Washington Center
01:48PM 38.0142 -77.2153 North 366 421 14,700 -1,980 Descending Washington Center
01:49PM 38.1083 -77.1989 North 354 407 12,800 -1,800 Descending Washington Center
01:50PM 38.1981 -77.1822 North 343 395 11,200 -1,440 Descending Washington Center
01:51PM 38.2797 -77.1575 13° North 319 367 10,000 -840 Descending Washington Center
01:52PM 38.3525 -77.1750 349° North 284 327 9,600 -720 Descending Washington Center
01:53PM 38.4169 -77.1897 350° North 258 297 8,600 -1,080 Descending Washington Center
01:54PM 38.4794 -77.2042 350° North 237 273 7,500 -1,260 Descending Washington Center
01:55PM 38.5458 -77.2217 348° North 237 273 6,200 -840 Descending Washington Center
01:56PM 38.6064 -77.2228 359° North 232 267 5,900 -120 Descending Washington Center
01:57PM 38.6136 -77.1461 83° East 152 175 6,000 -120 Climbing Washington Center
01:58PM 38.5514 -77.1261 166° South 115 132 5,700 -720 Descending Washington Center
02:00PM 38.5167 -77.0167 112° Southeast 213 245 3,800 -840 Descending Potomac TRACON
02:01PM 38.5833 -77.0167 360° North 188 216 3,100 -660 Descending Potomac TRACON
02:02PM 38.6167 -77.0167 360° North 172 198 2,500 -300 Descending Potomac TRACON
02:03PM 38.6667 -77.0167 360° North 177 204 2,500 -60 Level Potomac TRACON
02:04PM 38.7167 -77.0167 360° North 177 204 2,400 -120 Descending Potomac TRACON